This is the latest recevied weather packets stored in our database for station/object AE5TC. If no packets are shown the sender has not sent any weather packets the latest 10 day(s).
| Time | Temp. | Humidity | Pressure | Rain* | Wind** | Luminosity | Snow |
|---|---|---|---|---|---|---|---|
| 1777580927 | 25° C | 85% | 1009.6 hPa | 0 mm | - | 135 W/m² | - |
| 1777580627 | 25° C | 85% | 1009.6 hPa | 0 mm | - | 115 W/m² | - |
| 1777580323 | 25° C | 85% | 1009.6 hPa | 0 mm | - | 114 W/m² | - |
| 1777580015 | 25° C | 85% | 1010.2 hPa | 0 mm | - | 101 W/m² | - |
| 1777579710 | 25° C | 84% | 1010.1 hPa | 0 mm | - | 104 W/m² | - |
| 1777579409 | 25.56° C | 83% | 1010.2 hPa | 0 mm | - | 103 W/m² | - |
| 1777579103 | 26.11° C | 82% | 1010 hPa | 0 mm | - | 131 W/m² | - |
| 1777578798 | 26.11° C | 82% | 1010.1 hPa | 0 mm | - | 174 W/m² | - |
| 1777578494 | 26.67° C | 80% | 1010.4 hPa | 0 mm | - | 183 W/m² | - |
| 1777578189 | 26.67° C | 80% | 1010.3 hPa | 0 mm | - | 193 W/m² | - |
| 1777577885 | 26.67° C | 78% | 1010.2 hPa | 0 mm | - | 225 W/m² | - |
| 1777577580 | 26.67° C | 79% | 1010.2 hPa | 0 mm | - | 206 W/m² | - |
| 1777577278 | 26.67° C | 77% | 1010.2 hPa | 0 mm | - | 226 W/m² | - |
| 1777576974 | 27.22° C | 77% | 1010.4 hPa | 0 mm | - | 217 W/m² | - |
| 1777576670 | 27.78° C | 74% | 1010.4 hPa | 0 mm | - | 212 W/m² | - |
| 1777576370 | 27.78° C | 74% | 1010.4 hPa | 0 mm | - | 266 W/m² | - |
| 1777576067 | 28.89° C | 71% | 1010.4 hPa | 0 mm | - | 307 W/m² | - |
| 1777575763 | 28.89° C | 72% | 1010.5 hPa | 0 mm | - | 812 W/m² | - |
| 1777575459 | 27.78° C | 75% | 1010.2 hPa | 0 mm | - | 446 W/m² | - |
| 1777575155 | 27.78° C | 75% | 1010.4 hPa | 0 mm | - | 386 W/m² | - |
| 1777574850 | 27.78° C | 74% | 1010.3 hPa | 0 mm | - | 275 W/m² | - |
| 1777574548 | 27.22° C | 75% | 1010.5 hPa | 0 mm | - | 291 W/m² | - |
| 1777574244 | 27.78° C | 75% | 1010.5 hPa | 0 mm | - | 293 W/m² | - |
| 1777573939 | 27.78° C | 74% | 1010.6 hPa | 0 mm | - | 304 W/m² | - |
| 1777573635 | 27.78° C | 75% | 1010.7 hPa | 0 mm | - | 301 W/m² | - |
* Rain latest hour (hover to see other rain measurements)
** Current wind speed in m/s (hover to see current wind gust speed)